^^
Station Historical Data
Daily Summary for November 7, 2017 Units:  English    Metric   Both
« Previous Day
Next Day »
Daily Weekly Monthly Yearly Custom
  High: Low: Average:
Temperature: 46.3 °F 35.5 °F 40.7 °F
Dew Point: 39.1 °F 32.3 °F 35.3 °F
Humidity: 95% 66% 82%
Wind Speed: 5.0mph 0.0mph 1mph
Wind Gust: 12.0mph - -
Wind- - West
Pressure: 30.25 in 30.11 in -
Precipitation: 0.00 in    
Historical Graphs
 
 
Tabular Data for November 7, 2017
Time Temperature Dew Point Pressure Wind Wind Speed Wind Gust Humidity Rainfall Rate (Hourly) Conditions
00:09 44.9 °F 39.1 °F 30.11 in NNW 1.0 mph 6.0 mph 80% 0.00 in CLR
00:20 44.7 °F 38.9 °F 30.12 in NNW 5.0 mph 10.0 mph 80% 0.00 in CLR
00:29 44.5 °F 38.4 °F 30.12 in NE 2.0 mph 7.0 mph 79% 0.00 in CLR
00:40 44.4 °F 38.3 °F 30.13 in North 3.0 mph 12.0 mph 79% 0.00 in CLR
00:50 44.2 °F 38.4 °F 30.13 in NNE 2.0 mph 9.0 mph 80% 0.00 in CLR
00:59 43.9 °F 38.1 °F 30.13 in North 2.0 mph 8.0 mph 80% 0.00 in CLR
01:10 43.6 °F 38.2 °F 30.13 in NNE 1.0 mph 6.0 mph 81% 0.00 in CLR
01:19 43.4 °F 38.0 °F 30.14 in NNE 1.0 mph 5.0 mph 81% 0.00 in CLR
01:30 43.1 °F 38.0 °F 30.13 in NNW 1.0 mph 7.0 mph 82% 0.00 in CLR
01:49 42.4 °F 37.3 °F 30.13 in NW 1.0 mph 12.0 mph 82% 0.00 in CLR
01:59 42.1 °F 37.0 °F 30.14 in NNW 1.0 mph 6.0 mph 82% 0.00 in CLR
02:09 41.9 °F 36.5 °F 30.14 in NNW 1.0 mph 6.0 mph 81% 0.00 in CLR
02:20 41.7 °F 36.0 °F 30.14 in NW 2.0 mph 5.0 mph 80% 0.00 in CLR
02:30 41.6 °F 35.9 °F 30.14 in NNW 1.0 mph 5.0 mph 80% 0.00 in CLR
02:40 41.3 °F 35.6 °F 30.15 in NNW 1.0 mph 4.0 mph 80% 0.00 in CLR
02:50 41.0 °F 35.3 °F 30.14 in Calm   3.0 mph 80% 0.00 in CLR
03:00 40.8 °F 35.4 °F 30.14 in NNW 1.0 mph 4.0 mph 81% 0.00 in CLR
03:10 40.8 °F 35.1 °F 30.16 in NNW 2.0 mph 7.0 mph 80% 0.00 in CLR
03:20 40.8 °F 35.1 °F 30.16 in North 1.0 mph 3.0 mph 80% 0.00 in CLR
03:30 40.7 °F 35.0 °F 30.16 in North 2.0 mph 6.0 mph 80% 0.00 in CLR
03:39 40.7 °F 35.3 °F 30.16 in Calm   5.0 mph 81% 0.00 in CLR
03:50 40.5 °F 35.1 °F 30.16 in NNW 2.0 mph 7.0 mph 81% 0.00 in CLR
03:59 40.3 °F 34.9 °F 30.16 in NNW 1.0 mph 4.0 mph 81% 0.00 in CLR
04:09 40.3 °F 34.9 °F 30.17 in Calm   5.0 mph 81% 0.00 in CLR
04:20 40.0 °F 34.6 °F 30.18 in Calm   3.0 mph 81% 0.00 in CLR
04:29 39.9 °F 34.5 °F 30.18 in Calm   5.0 mph 81% 0.00 in CLR
04:40 39.6 °F 34.3 °F 30.18 in Calm   5.0 mph 81% 0.00 in CLR
04:50 39.1 °F 34.4 °F 30.18 in Calm   2.0 mph 83% 0.00 in CLR
04:59 39.0 °F 34.3 °F 30.17 in Calm   4.0 mph 83% 0.00 in CLR
05:10 38.7 °F 34.0 °F 30.18 in Calm   2.0 mph 83% 0.00 in CLR
05:19 38.1 °F 33.7 °F 30.18 in Calm   1.0 mph 84% 0.00 in CLR
05:29 37.5 °F 33.4 °F 30.19 in Calm     85% 0.00 in CLR
05:40 37.1 °F 33.3 °F 30.19 in Calm     86% 0.00 in CLR
05:50 36.8 °F 33.3 °F 30.19 in Calm     87% 0.00 in CLR
06:00 36.5 °F 32.7 °F 30.20 in Calm     86% 0.00 in CLR
06:10 36.2 °F 32.7 °F 30.19 in Calm     87% 0.00 in CLR
06:20 35.9 °F 32.7 °F 30.19 in Calm     88% 0.00 in CLR
06:30 35.5 °F 32.3 °F 30.19 in Calm   1.0 mph 88% 0.00 in CLR
06:40 35.5 °F 32.6 °F 30.20 in Calm     89% 0.00 in CLR
06:50 35.9 °F 33.0 °F 30.20 in Calm   1.0 mph 89% 0.00 in CLR
06:59 36.2 °F 33.0 °F 30.21 in Calm   1.0 mph 88% 0.00 in CLR
07:09 36.7 °F 33.4 °F 30.21 in Calm   1.0 mph 88% 0.00 in FEW
07:19 37.2 °F 34.0 °F 30.21 in Calm   1.0 mph 88% 0.00 in FEW
07:29 38.1 °F 34.3 °F 30.23 in Calm   1.0 mph 86% 0.00 in FEW
07:40 38.9 °F 34.5 °F 30.22 in Calm   2.0 mph 84% 0.00 in FEW
07:50 39.9 °F 34.6 °F 30.23 in NNW 1.0 mph 4.0 mph 81% 0.00 in FEW
08:10 41.2 °F 34.5 °F 30.23 in NNW 1.0 mph 7.0 mph 77% 0.00 in FEW
08:19 41.5 °F 34.5 °F 30.23 in NW 1.0 mph 5.0 mph 76% 0.00 in FEW
08:29 41.7 °F 34.3 °F 30.22 in NW 3.0 mph 7.0 mph 75% 0.00 in FEW
08:39 42.2 °F 34.5 °F 30.23 in NNE 1.0 mph 8.0 mph 74% 0.00 in FEW
08:50 42.7 °F 34.6 °F 30.24 in NNE 2.0 mph 4.0 mph 73% 0.00 in FEW
08:59 43.1 °F 34.7 °F 30.24 in NNE 1.0 mph 7.0 mph 72% 0.00 in FEW
09:09 43.8 °F 35.0 °F 30.23 in NNE 1.0 mph 4.0 mph 71% 0.00 in FEW
09:20 44.5 °F 35.3 °F 30.25 in Calm   5.0 mph 70% 0.00 in FEW
09:29 45.1 °F 35.5 °F 30.25 in NNW 1.0 mph 4.0 mph 69% 0.00 in FEW
09:40 45.5 °F 35.2 °F 30.25 in NNW 1.0 mph 8.0 mph 67% 0.00 in FEW
09:50 46.0 °F 35.7 °F 30.24 in North 2.0 mph 6.0 mph 67% 0.00 in FEW
09:59 45.9 °F 35.6 °F 30.24 in North 2.0 mph 6.0 mph 67% 0.00 in FEW
10:09 46.3 °F 36.7 °F 30.25 in NW 2.0 mph 12.0 mph 69% 0.00 in FEW
10:29 45.7 °F 36.5 °F 30.24 in North 3.0 mph 9.0 mph 70% 0.00 in FEW
10:40 45.8 °F 36.6 °F 30.23 in NNW 1.0 mph 6.0 mph 70% 0.00 in FEW
10:49 46.0 °F 36.4 °F 30.22 in NW 3.0 mph 7.0 mph 69% 0.00 in FEW
11:10 46.0 °F 36.0 °F 30.22 in North 1.0 mph 6.0 mph 68% 0.00 in BKN
11:19 46.0 °F 36.0 °F 30.23 in NNW 2.0 mph 5.0 mph 68% 0.00 in BKN
11:29 45.8 °F 36.2 °F 30.23 in NNW 1.0 mph 6.0 mph 69% 0.00 in BKN
11:39 45.4 °F 35.4 °F 30.23 in NNE 1.0 mph 8.0 mph 68% 0.00 in BKN
11:49 45.4 °F 35.8 °F 30.22 in NNW 1.0 mph 6.0 mph 69% 0.00 in BKN
11:59 45.4 °F 35.8 °F 30.22 in NNW 1.0 mph 7.0 mph 69% 0.00 in BKN
12:10 45.6 °F 36.0 °F 30.22 in Calm   4.0 mph 69% 0.00 in BKN
12:19 45.3 °F 35.3 °F 30.23 in North 5.0 mph 7.0 mph 68% 0.00 in BKN
12:30 45.2 °F 35.3 °F 30.22 in NW 2.0 mph 5.0 mph 68% 0.00 in BKN
12:40 45.1 °F 35.5 °F 30.21 in NNW 3.0 mph 7.0 mph 69% 0.00 in BKN
12:50 44.9 °F 34.6 °F 30.20 in NW 2.0 mph 7.0 mph 67% 0.00 in BKN
13:09 44.7 °F 34.4 °F 30.19 in NNW 2.0 mph 10.0 mph 67% 0.00 in BKN
13:19 44.8 °F 34.5 °F 30.18 in NNW 1.0 mph 7.0 mph 67% 0.00 in BKN
13:30 44.7 °F 34.4 °F 30.17 in NNW 2.0 mph 7.0 mph 67% 0.00 in BKN
13:40 44.5 °F 34.2 °F 30.17 in NNW 2.0 mph 6.0 mph 67% 0.00 in BKN
13:49 44.5 °F 33.8 °F 30.16 in NNE 3.0 mph 10.0 mph 66% 0.00 in BKN
13:59 44.5 °F 34.2 °F 30.15 in NW 2.0 mph 8.0 mph 67% 0.00 in BKN
14:10 44.4 °F 33.7 °F 30.14 in NNW 2.0 mph 9.0 mph 66% 0.00 in BKN
14:20 44.4 °F 33.7 °F 30.15 in NNW 2.0 mph 6.0 mph 66% 0.00 in BKN
14:29 44.3 °F 33.7 °F 30.15 in NNW 2.0 mph 7.0 mph 66% 0.00 in BKN
14:39 44.1 °F 33.5 °F 30.16 in North 3.0 mph 5.0 mph 66% 0.00 in BKN
14:49 44.0 °F 33.7 °F 30.18 in NW 1.0 mph 6.0 mph 67% 0.00 in BKN
14:59 44.0 °F 33.7 °F 30.19 in North 1.0 mph 4.0 mph 67% 0.00 in BKN
15:09 43.9 °F 34.0 °F 30.20 in NW 1.0 mph 4.0 mph 68% 0.00 in BKN
15:19 43.8 °F 33.9 °F 30.20 in Calm   5.0 mph 68% 0.00 in BKN
15:30 43.8 °F 34.3 °F 30.20 in Calm   3.0 mph 69% 0.00 in BKN
15:39 43.6 °F 34.5 °F 30.20 in Calm   3.0 mph 70% 0.00 in BKN
15:50 43.1 °F 34.7 °F 30.20 in NNW 2.0 mph 5.0 mph 72% 0.00 in BKN
16:00 42.5 °F 35.8 °F 30.20 in Calm   6.0 mph 77% 0.01 in RA
16:09 40.8 °F 35.2 °F 30.19 in Calm   6.0 mph 80% 0.04 in -RA
16:20 39.4 °F 34.9 °F 30.19 in NNW 2.0 mph 9.0 mph 84% 0.06 in -RA
16:30 38.5 °F 34.9 °F 30.19 in Calm   6.0 mph 87% 0.03 in -RA
16:39 38.2 °F 35.5 °F 30.18 in Calm   2.0 mph 90% 0.02 in -RA
16:49 38.2 °F 35.8 °F 30.18 in NW 1.0 mph 3.0 mph 91% 0.02 in -RA
17:00 38.2 °F 35.8 °F 30.17 in Calm   4.0 mph 91% 0.03 in -RA
17:09 38.1 °F 35.7 °F 30.17 in Calm   3.0 mph 91% 0.03 in RA
17:19 37.9 °F 35.8 °F 30.17 in NNW 1.0 mph 4.0 mph 92% 0.03 in RA
17:29 37.8 °F 35.7 °F 30.17 in Calm   7.0 mph 92% 0.02 in RA
17:39 37.9 °F 36.0 °F 30.16 in Calm   5.0 mph 93% 0.02 in RA
17:49 37.9 °F 36.1 °F 30.16 in North 1.0 mph 8.0 mph 93% 0.01 in RA
17:59 38.0 °F 36.2 °F 30.16 in North 1.0 mph 7.0 mph 93% 0.01 in RA
18:09 38.1 °F 36.3 °F 30.17 in NNW 1.0 mph 7.0 mph 93% 0.02 in -RA
18:20 38.2 °F 36.4 °F 30.17 in Calm   4.0 mph 93% 0.02 in -RA
18:30 38.2 °F 36.4 °F 30.18 in Calm   2.0 mph 93% 0.01 in -RA
18:39 38.3 °F 36.5 °F 30.19 in Calm   1.0 mph 93% 0.02 in -RA
18:49 38.4 °F 36.6 °F 30.21 in Calm   4.0 mph 93% 0.01 in -RA
19:10 38.5 °F 36.6 °F 30.20 in Calm   3.0 mph 93% 0.01 in -RA
19:19 38.4 °F 36.6 °F 30.20 in Calm   2.0 mph 93% 0.01 in -RA
19:29 38.3 °F 36.5 °F 30.20 in Calm   3.0 mph 93% 0.02 in -RA
19:39 38.1 °F 36.3 °F 30.20 in NNW 1.0 mph 5.0 mph 93% 0.01 in -RA
19:49 37.9 °F 36.3 °F 30.20 in Calm   4.0 mph 94% 0.01 in -RA
19:59 37.8 °F 36.3 °F 30.20 in Calm   4.0 mph 94% 0.01 in -RA
20:09 37.7 °F 36.1 °F 30.21 in NNW 2.0 mph 4.0 mph 94% 0.00 in OVC
20:20 37.6 °F 36.0 °F 30.22 in NNW 1.0 mph 4.0 mph 94% 0.02 in RA
20:30 37.6 °F 36.0 °F 30.21 in NNW 1.0 mph 4.0 mph 94% 0.01 in RA
20:39 37.4 °F 35.8 °F 30.21 in NW 2.0 mph 6.0 mph 94% 0.02 in RA
20:50 37.3 °F 35.7 °F 30.21 in NNW 1.0 mph 6.0 mph 94% 0.01 in RA
20:59 37.3 °F 35.7 °F 30.21 in NW 1.0 mph 5.0 mph 94% 0.02 in RA
21:09 37.2 °F 35.6 °F 30.20 in NNW 1.0 mph 6.0 mph 94% 0.01 in RA
21:29 37.2 °F 35.9 °F 30.20 in NNW 1.0 mph 6.0 mph 95% 0.01 in RA
21:39 37.2 °F 35.9 °F 30.20 in NNW 1.0 mph 6.0 mph 95% 0.01 in RA
21:50 37.2 °F 35.9 °F 30.21 in Calm   4.0 mph 95% 0.00 in OVC
21:59 37.2 °F 35.9 °F 30.21 in NNW 1.0 mph 6.0 mph 95% 0.00 in OVC
22:10 37.2 °F 35.9 °F 30.21 in NW 1.0 mph 8.0 mph 95% 0.01 in -RA
22:20 37.2 °F 35.9 °F 30.21 in North 2.0 mph 6.0 mph 95% 0.00 in -RA
22:30 37.2 °F 35.9 °F 30.21 in NNW 1.0 mph 3.0 mph 95% 0.00 in -RA
22:39 36.9 °F 35.6 °F 30.21 in NNW 1.0 mph 4.0 mph 95% 0.01 in -RA
22:49 36.8 °F 35.5 °F 30.20 in NW 1.0 mph 6.0 mph 95% 0.01 in -RA
22:59 36.6 °F 35.3 °F 30.20 in NW 1.0 mph 8.0 mph 95% 0.01 in -RA
23:09 36.5 °F 35.2 °F 30.21 in Calm   6.0 mph 95% 0.01 in -RA
23:19 36.2 °F 34.9 °F 30.20 in NNW 2.0 mph 8.0 mph 95% 0.01 in -RA
23:29 36.0 °F 34.7 °F 30.21 in NNW 1.0 mph 5.0 mph 95% 0.00 in -RA
23:40 35.8 °F 34.6 °F 30.21 in NNW 2.0 mph 7.0 mph 95% 0.01 in -RA
23:50 35.6 °F 34.3 °F 30.20 in North 3.0 mph 7.0 mph 95% 0.00 in -RA
23:59 35.5 °F 34.2 °F 30.20 in North 1.0 mph 7.0 mph 95% 0.00 in -RA
TarryTown NY Weather
Compliments of Weather Underground - 1.75 mb